Time;durP1;ratioP1;P1;durP2;ratioP2;P2;SDS_P1;SDS_P2;PMS_P1;PMS_P2;Temp;Humidity;BMP_temperature;BMP_pressure;BME280_temperature;BME280_humidity;BME280_pressure;Samples;Min_cycle;Max_cycle;Signal;HPM_P1;HPM_P2
2023/12/25 00:02:06;;;;;;;0.60;0.60;;;9.80;99.90;;;;;;4366196;32;20062;-74
2023/12/25 00:04:32;;;;;;;0.30;0.30;;;9.70;99.90;;;;;;4378026;32;20090;-74
2023/12/25 00:06:57;;;;;;;0.40;0.40;;;9.70;99.90;;;;;;4373651;32;20150;-74
2023/12/25 00:09:23;;;;;;;0.30;0.30;;;9.70;99.90;;;;;;4373816;32;20066;-74
2023/12/25 00:11:49;;;;;;;3.83;1.25;;;9.70;99.90;;;;;;4372391;32;20067;-74
2023/12/25 00:14:14;;;;;;;0.32;0.32;;;9.70;99.90;;;;;;4374922;32;20415;-74
2023/12/25 00:16:41;;;;;;;0.30;0.30;;;9.70;99.90;;;;;;4373614;32;20099;-74
2023/12/25 00:19:07;;;;;;;0.30;0.30;;;9.70;99.90;;;;;;4375447;32;20095;-71
2023/12/25 00:21:33;;;;;;;0.30;0.30;;;9.70;99.90;;;;;;4374943;32;20327;-71
2023/12/25 00:23:58;;;;;;;0.40;0.40;;;9.70;99.90;;;;;;4375210;32;20550;-73
2023/12/25 00:26:24;;;;;;;0.35;0.35;;;9.70;99.90;;;;;;4375710;32;21211;-72
2023/12/25 00:28:49;;;;;;;0.35;0.35;;;9.70;99.90;;;;;;4373920;32;20062;-73
2023/12/25 00:31:15;;;;;;;0.30;0.30;;;9.70;99.90;;;;;;4372684;32;20095;-71
2023/12/25 00:33:40;;;;;;;0.65;0.65;;;9.70;99.90;;;;;;4376178;32;20857;-73
2023/12/25 00:36:06;;;;;;;0.30;0.30;;;9.70;99.90;;;;;;4375655;32;20117;-73
2023/12/25 00:38:32;;;;;;;0.40;0.40;;;9.70;99.90;;;;;;4377855;32;20125;-69
2023/12/25 00:40:57;;;;;;;0.37;0.37;;;9.70;99.90;;;;;;4377964;32;20101;-72
2023/12/25 00:43:22;;;;;;;1.25;0.70;;;9.70;99.90;;;;;;4377796;32;20473;-72
2023/12/25 00:45:48;;;;;;;0.30;0.30;;;9.80;99.90;;;;;;4374132;32;20055;-71
2023/12/25 00:48:13;;;;;;;0.30;0.30;;;9.80;99.90;;;;;;4375164;32;20384;-72
2023/12/25 00:50:39;;;;;;;0.32;0.32;;;9.80;99.90;;;;;;4377670;32;20085;-72
2023/12/25 00:53:04;;;;;;;0.40;0.40;;;9.80;99.90;;;;;;4372394;32;20444;-73
2023/12/25 00:55:30;;;;;;;0.40;0.40;;;9.90;99.90;;;;;;4374736;32;20102;-72
2023/12/25 00:57:56;;;;;;;0.37;0.37;;;9.90;99.90;;;;;;4370942;32;20079;-72
2023/12/25 01:00:21;;;;;;;3.20;0.95;;;9.90;99.90;;;;;;4370518;32;20062;-73
2023/12/25 01:02:47;;;;;;;0.32;0.32;;;9.90;99.90;;;;;;4372755;32;20140;-72
2023/12/25 01:05:13;;;;;;;0.40;0.40;;;9.90;99.90;;;;;;4373421;32;20063;-72
2023/12/25 01:07:38;;;;;;;0.30;0.30;;;9.90;99.90;;;;;;4377830;32;20079;-73
2023/12/25 01:10:04;;;;;;;0.40;0.40;;;9.90;99.90;;;;;;4378439;32;20411;-71
2023/12/25 01:12:30;;;;;;;0.30;0.30;;;9.90;99.90;;;;;;4375324;32;20087;-73
2023/12/25 01:14:55;;;;;;;0.40;0.40;;;9.90;99.90;;;;;;4375456;32;20066;-72
2023/12/25 01:17:21;;;;;;;0.40;0.40;;;9.90;99.90;;;;;;4377787;32;20082;-69
2023/12/25 01:19:46;;;;;;;0.30;0.30;;;9.90;99.90;;;;;;4377153;32;20118;-70
2023/12/25 01:22:12;;;;;;;4.85;0.68;;;10.00;99.90;;;;;;4376249;32;20058;-73
2023/12/25 01:24:37;;;;;;;0.40;0.40;;;9.90;99.90;;;;;;4374187;32;20095;-70
2023/12/25 01:27:03;;;;;;;6.80;2.28;;;9.90;99.90;;;;;;4373803;32;20086;-71
2023/12/25 01:29:28;;;;;;;0.40;0.40;;;9.90;99.90;;;;;;4378208;32;20078;-70
2023/12/25 01:31:54;;;;;;;3.60;1.27;;;9.90;99.90;;;;;;4374752;32;20084;-72
2023/12/25 01:34:19;;;;;;;0.40;0.40;;;9.80;99.90;;;;;;4380928;32;20775;-69
2023/12/25 01:36:45;;;;;;;0.40;0.40;;;9.80;99.90;;;;;;4380724;32;20079;-72
2023/12/25 01:39:12;;;;;;;0.35;0.35;;;9.80;99.90;;;;;;4378755;32;20095;-70
2023/12/25 01:41:37;;;;;;;0.30;0.30;;;9.80;99.90;;;;;;4380928;32;20079;-70
2023/12/25 01:44:03;;;;;;;0.50;0.50;;;9.80;99.90;;;;;;4379791;32;20082;-72
2023/12/25 01:46:29;;;;;;;0.30;0.30;;;9.80;99.90;;;;;;4382019;32;20096;-70
2023/12/25 01:48:54;;;;;;;0.40;0.40;;;9.70;99.90;;;;;;4375714;32;20070;-73
2023/12/25 01:51:22;;;;;;;25.52;0.73;;;9.80;99.90;;;;;;4368473;32;20074;-73
2023/12/25 01:53:48;;;;;;;0.43;0.43;;;9.80;99.90;;;;;;4367326;32;20063;-73
2023/12/25 01:56:14;;;;;;;0.40;0.40;;;9.80;99.90;;;;;;4368057;32;20126;-73
2023/12/25 01:58:40;;;;;;;0.40;0.40;;;9.80;99.90;;;;;;4370079;32;20183;-73
2023/12/25 02:01:06;;;;;;;0.40;0.40;;;9.80;99.90;;;;;;4365299;32;20087;-73
2023/12/25 02:03:32;;;;;;;0.40;0.40;;;9.90;99.90;;;;;;4369459;32;20154;-73
2023/12/25 02:05:58;;;;;;;0.40;0.40;;;9.90;99.90;;;;;;4370647;32;20078;-73
2023/12/25 02:08:24;;;;;;;0.30;0.30;;;9.90;99.90;;;;;;4370294;32;20091;-73
2023/12/25 02:10:49;;;;;;;0.40;0.40;;;10.00;99.90;;;;;;4370463;32;20106;-73
2023/12/25 02:13:14;;;;;;;0.40;0.40;;;10.10;99.90;;;;;;4372224;32;20533;-73
2023/12/25 02:15:40;;;;;;;0.47;0.47;;;10.10;99.90;;;;;;4369590;32;20075;-72
2023/12/25 02:18:08;;;;;;;0.45;0.45;;;10.20;99.90;;;;;;4367612;32;20146;-73
2023/12/25 02:20:33;;;;;;;0.40;0.40;;;10.30;99.90;;;;;;4370905;32;20843;-74
2023/12/25 02:23:02;;;;;;;3.92;0.73;;;10.30;99.90;;;;;;4368017;32;20074;-72
2023/12/25 02:25:32;;;;;;;0.30;0.30;;;10.40;99.90;;;;;;4368783;32;20108;-73
2023/12/25 02:28:00;;;;;;;0.57;0.57;;;10.50;99.90;;;;;;4370922;32;20083;-73
2023/12/25 02:30:26;;;;;;;1.30;0.60;;;10.50;99.90;;;;;;4369274;32;20126;-73
2023/12/25 02:32:51;;;;;;;1.17;1.08;;;10.60;99.90;;;;;;4366053;32;20143;-73
2023/12/25 02:35:17;;;;;;;0.30;0.30;;;10.50;99.90;;;;;;4368999;32;20083;-73
2023/12/25 02:37:42;;;;;;;0.30;0.30;;;10.50;99.90;;;;;;4369666;32;20139;-73
2023/12/25 02:40:08;;;;;;;0.35;0.35;;;10.50;99.90;;;;;;4369951;32;20074;-72
2023/12/25 02:42:34;;;;;;;0.30;0.30;;;10.40;99.90;;;;;;4372431;32;20062;-73
2023/12/25 02:44:59;;;;;;;0.50;0.50;;;10.40;99.90;;;;;;4370995;32;20067;-73
2023/12/25 02:47:25;;;;;;;0.73;0.73;;;10.40;99.90;;;;;;4372212;32;20546;-74
2023/12/25 02:49:50;;;;;;;0.50;0.50;;;10.40;99.90;;;;;;4372671;32;20070;-72
2023/12/25 02:52:16;;;;;;;0.40;0.40;;;10.30;99.90;;;;;;4369411;32;20086;-72
2023/12/25 02:54:41;;;;;;;0.30;0.30;;;10.30;99.90;;;;;;4372373;32;20087;-73
2023/12/25 02:57:07;;;;;;;0.50;0.50;;;10.30;99.90;;;;;;4370221;32;20058;-73
2023/12/25 02:59:32;;;;;;;1.05;0.52;;;10.20;99.90;;;;;;4370193;32;20074;-73
2023/12/25 03:01:59;;;;;;;0.57;0.57;;;10.20;99.90;;;;;;4367253;32;20126;-72
2023/12/25 03:04:24;;;;;;;0.32;0.32;;;10.20;99.90;;;;;;4369011;32;20066;-72
2023/12/25 03:06:50;;;;;;;0.47;0.47;;;10.20;99.90;;;;;;4369214;32;20589;-73
2023/12/25 03:09:16;;;;;;;0.37;0.37;;;10.20;99.90;;;;;;4372186;32;20087;-73
2023/12/25 03:11:42;;;;;;;0.32;0.32;;;10.20;99.90;;;;;;4369389;32;20089;-73
2023/12/25 03:14:07;;;;;;;0.50;0.50;;;10.20;99.90;;;;;;4368959;32;20119;-73
2023/12/25 03:16:33;;;;;;;0.40;0.40;;;10.20;99.90;;;;;;4371456;32;20551;-73
2023/12/25 03:18:58;;;;;;;0.40;0.40;;;10.20;99.90;;;;;;4369703;32;20589;-73
2023/12/25 03:21:24;;;;;;;0.40;0.40;;;10.20;99.90;;;;;;4370570;32;20102;-73
2023/12/25 03:23:49;;;;;;;0.40;0.40;;;10.20;99.90;;;;;;4370522;32;20058;-73
2023/12/25 03:26:15;;;;;;;0.30;0.30;;;10.20;99.90;;;;;;4369577;32;20059;-74
2023/12/25 03:28:40;;;;;;;0.30;0.30;;;10.20;99.90;;;;;;4372500;32;20452;-74
2023/12/25 03:31:07;;;;;;;0.50;0.50;;;10.20;99.90;;;;;;4374793;32;20161;-73
2023/12/25 03:33:34;;;;;;;0.30;0.30;;;10.10;99.90;;;;;;4375943;32;20063;-73
2023/12/25 03:36:00;;;;;;;0.25;0.25;;;10.00;99.90;;;;;;4375478;32;20082;-73
2023/12/25 03:38:25;;;;;;;0.50;0.50;;;9.90;99.90;;;;;;4374252;32;20075;-73
2023/12/25 03:40:51;;;;;;;0.35;0.35;;;9.80;99.90;;;;;;4373659;32;20637;-72
2023/12/25 03:43:16;;;;;;;0.40;0.40;;;9.70;99.90;;;;;;4373418;32;20063;-73
2023/12/25 03:45:42;;;;;;;0.50;0.50;;;9.70;99.90;;;;;;4374492;32;20086;-73
2023/12/25 03:48:07;;;;;;;2.12;0.50;;;9.70;99.90;;;;;;4373499;32;20467;-70
2023/12/25 03:50:33;;;;;;;0.30;0.30;;;9.60;99.90;;;;;;4382467;32;20126;-72
2023/12/25 03:52:58;;;;;;;0.40;0.40;;;9.70;99.90;;;;;;4384252;32;21159;-71
2023/12/25 03:55:24;;;;;;;0.35;0.35;;;9.70;99.90;;;;;;4387529;32;20058;-70
2023/12/25 03:57:49;;;;;;;0.45;0.45;;;9.70;99.90;;;;;;4384898;32;20062;-70
2023/12/25 04:00:15;;;;;;;0.75;0.75;;;9.80;99.90;;;;;;4382185;32;20121;-70
2023/12/25 04:02:41;;;;;;;0.60;0.60;;;9.80;99.90;;;;;;4381265;32;20068;-70
2023/12/25 04:05:06;;;;;;;1.02;0.95;;;9.80;99.90;;;;;;4382391;32;20066;-70
2023/12/25 04:07:32;;;;;;;0.57;0.57;;;9.80;99.90;;;;;;4383019;32;20503;-70
2023/12/25 04:09:58;;;;;;;0.40;0.40;;;9.80;99.90;;;;;;4375236;32;20558;-70
2023/12/25 04:12:24;;;;;;;0.30;0.30;;;9.90;99.90;;;;;;4373896;32;20074;-72
2023/12/25 04:14:49;;;;;;;0.52;0.52;;;9.90;99.90;;;;;;4370870;32;20087;-70
2023/12/25 04:17:15;;;;;;;1.15;1.05;;;9.90;99.90;;;;;;4371172;32;20075;-70
2023/12/25 04:19:41;;;;;;;0.30;0.30;;;9.90;99.90;;;;;;4374532;32;20058;-71
2023/12/25 04:22:06;;;;;;;5.20;0.50;;;10.00;99.90;;;;;;4375120;32;20083;-70
2023/12/25 04:24:32;;;;;;;0.30;0.30;;;10.00;99.90;;;;;;4374884;32;20794;-70
2023/12/25 04:26:57;;;;;;;0.35;0.35;;;10.00;99.90;;;;;;4373221;32;20125;-71
2023/12/25 04:29:22;;;;;;;0.35;0.35;;;10.10;99.90;;;;;;4376432;32;20070;-71
2023/12/25 04:31:49;;;;;;;0.88;0.88;;;10.10;99.90;;;;;;4375198;32;20489;-70
2023/12/25 04:34:14;;;;;;;0.30;0.30;;;10.10;99.90;;;;;;4377252;32;20486;-71
2023/12/25 04:36:40;;;;;;;0.30;0.30;;;10.20;99.90;;;;;;4373926;32;20070;-71
2023/12/25 04:39:05;;;;;;;0.40;0.40;;;10.20;99.90;;;;;;4373945;32;20078;-70
2023/12/25 04:41:31;;;;;;;0.57;0.57;;;10.30;99.90;;;;;;4376377;32;20058;-72
2023/12/25 04:43:56;;;;;;;7.78;0.60;;;10.40;99.90;;;;;;4374482;32;21445;-70
2023/12/25 04:46:22;;;;;;;0.40;0.40;;;10.40;99.90;;;;;;4372997;32;20472;-70
2023/12/25 04:48:48;;;;;;;0.40;0.40;;;10.50;99.90;;;;;;4377902;32;20071;-71
2023/12/25 04:51:13;;;;;;;0.30;0.30;;;10.50;99.90;;;;;;4372149;32;20091;-71
2023/12/25 04:53:39;;;;;;;0.43;0.43;;;10.60;99.90;;;;;;4376837;32;20096;-72
2023/12/25 04:56:04;;;;;;;0.30;0.30;;;10.70;99.90;;;;;;4375505;32;20081;-72
2023/12/25 04:58:39;;;;;;;0.30;0.30;;;10.60;99.90;;;;;;4374324;32;20472;-73
2023/12/25 05:01:05;;;;;;;0.40;0.40;;;10.60;99.90;;;;;;4373156;32;20066;-70
2023/12/25 05:03:31;;;;;;;2.03;1.02;;;10.50;99.90;;;;;;4373424;32;20071;-71
2023/12/25 05:05:57;;;;;;;0.30;0.30;;;10.50;99.90;;;;;;4376656;32;20074;-72
2023/12/25 05:08:23;;;;;;;0.40;0.40;;;10.50;99.90;;;;;;4376397;32;20083;-71
2023/12/25 05:10:48;;;;;;;0.35;0.35;;;10.50;99.90;;;;;;4375822;32;20452;-72
2023/12/25 05:13:14;;;;;;;0.30;0.30;;;10.40;99.90;;;;;;4377289;32;20090;-70
2023/12/25 05:15:39;;;;;;;0.40;0.40;;;10.40;99.90;;;;;;4373180;32;20069;-71
2023/12/25 05:18:05;;;;;;;0.40;0.40;;;10.40;99.90;;;;;;4372277;32;20062;-71
2023/12/25 05:20:30;;;;;;;1.52;0.60;;;10.40;99.90;;;;;;4378221;32;20090;-71
2023/12/25 05:22:56;;;;;;;1.33;1.23;;;10.40;99.90;;;;;;4378296;32;20164;-72
2023/12/25 05:25:22;;;;;;;0.40;0.40;;;10.50;99.90;;;;;;4378257;32;20069;-71
2023/12/25 05:27:48;;;;;;;0.40;0.40;;;10.50;99.90;;;;;;4378902;32;20062;-70
2023/12/25 05:30:14;;;;;;;0.50;0.50;;;10.50;99.90;;;;;;4378892;32;20336;-71
2023/12/25 05:32:39;;;;;;;0.40;0.40;;;10.60;99.90;;;;;;4376657;32;20071;-71
2023/12/25 05:35:05;;;;;;;0.40;0.40;;;10.70;99.90;;;;;;4380521;32;20557;-70
2023/12/25 05:37:31;;;;;;;0.40;0.40;;;10.70;99.90;;;;;;4378033;32;20062;-70
2023/12/25 05:39:56;;;;;;;0.50;0.50;;;10.80;99.90;;;;;;4379169;32;20071;-72
2023/12/25 05:42:22;;;;;;;0.30;0.30;;;10.80;99.90;;;;;;4377651;32;20520;-70
2023/12/25 05:44:48;;;;;;;2.62;1.10;;;10.70;99.90;;;;;;4380399;32;20642;-71
2023/12/25 05:47:14;;;;;;;0.40;0.40;;;10.80;99.90;;;;;;4379192;32;20058;-72
2023/12/25 05:49:40;;;;;;;1.55;1.12;;;10.80;99.90;;;;;;4383937;32;20071;-69
2023/12/25 05:52:05;;;;;;;0.43;0.43;;;10.80;99.90;;;;;;4381924;32;20093;-71
2023/12/25 05:54:31;;;;;;;0.40;0.40;;;10.80;99.90;;;;;;4381339;32;20074;-71
2023/12/25 05:56:57;;;;;;;0.30;0.30;;;10.80;99.90;;;;;;4380535;32;20094;-72
2023/12/25 05:59:23;;;;;;;0.85;0.85;;;10.80;99.90;;;;;;4381730;32;20071;-70
2023/12/25 06:01:48;;;;;;;0.40;0.40;;;10.90;99.90;;;;;;4380481;32;20066;-71
2023/12/25 06:04:14;;;;;;;1.12;0.65;;;10.90;99.90;;;;;;4380654;32;20210;-70
2023/12/25 06:06:40;;;;;;;0.40;0.40;;;10.90;99.90;;;;;;4380746;32;21086;-71
2023/12/25 06:09:06;;;;;;;0.40;0.40;;;10.90;99.90;;;;;;4381022;32;20089;-73
2023/12/25 06:11:31;;;;;;;0.40;0.40;;;10.90;99.90;;;;;;4375098;32;20094;-73
2023/12/25 06:13:57;;;;;;;1.00;0.62;;;11.00;99.90;;;;;;4377557;32;21228;-73
2023/12/25 06:16:22;;;;;;;1.23;0.35;;;11.00;99.90;;;;;;4372593;32;20098;-73
2023/12/25 06:18:48;;;;;;;0.40;0.40;;;11.00;99.90;;;;;;4373295;32;20063;-73
2023/12/25 06:21:14;;;;;;;0.37;0.37;;;10.90;99.90;;;;;;4373130;32;20091;-73
2023/12/25 06:23:40;;;;;;;0.55;0.55;;;11.00;99.90;;;;;;4374241;32;20163;-73
2023/12/25 06:26:05;;;;;;;0.50;0.50;;;11.00;99.90;;;;;;4373877;32;20196;-73
2023/12/25 06:28:31;;;;;;;0.40;0.40;;;11.00;99.90;;;;;;4376395;32;20533;-73
2023/12/25 06:30:57;;;;;;;0.60;0.57;;;11.00;99.90;;;;;;4367186;32;20547;-72
2023/12/25 06:33:22;;;;;;;0.40;0.40;;;11.00;99.90;;;;;;4368113;32;20062;-73
2023/12/25 06:35:48;;;;;;;0.30;0.30;;;11.10;99.90;;;;;;4367398;32;20277;-73
2023/12/25 06:38:14;;;;;;;0.50;0.50;;;11.10;99.90;;;;;;4368695;32;20577;-74
2023/12/25 06:40:39;;;;;;;0.40;0.40;;;11.10;99.90;;;;;;4368079;32;20072;-74
2023/12/25 06:43:05;;;;;;;0.80;0.80;;;11.10;99.90;;;;;;4368656;32;20074;-73
2023/12/25 06:45:30;;;;;;;0.40;0.40;;;11.10;99.90;;;;;;4368452;32;20122;-73
2023/12/25 06:47:56;;;;;;;0.50;0.50;;;11.10;99.90;;;;;;4369738;32;20079;-74
2023/12/25 06:50:21;;;;;;;0.95;0.68;;;11.10;99.90;;;;;;4368973;32;20087;-73
2023/12/25 06:52:48;;;;;;;0.40;0.40;;;11.00;99.90;;;;;;4371784;32;20066;-73
2023/12/25 06:55:14;;;;;;;0.50;0.50;;;11.00;99.90;;;;;;4371065;32;20111;-73
2023/12/25 06:57:39;;;;;;;0.35;0.35;;;11.10;99.90;;;;;;4367679;32;20142;-74
2023/12/25 07:00:05;;;;;;;0.45;0.45;;;11.20;99.90;;;;;;4369415;32;20071;-74
2023/12/25 07:02:31;;;;;;;0.40;0.40;;;11.20;99.90;;;;;;4367353;32;20071;-73
2023/12/25 07:04:57;;;;;;;0.50;0.50;;;11.20;99.90;;;;;;4367745;32;20082;-73
2023/12/25 07:07:22;;;;;;;0.50;0.50;;;11.20;99.90;;;;;;4368033;32;20059;-73
2023/12/25 07:09:49;;;;;;;0.57;0.57;;;11.10;99.90;;;;;;4368681;32;20070;-73
2023/12/25 07:12:14;;;;;;;1.37;1.05;;;11.10;99.90;;;;;;4370964;32;20122;-74
2023/12/25 07:14:42;;;;;;;0.43;0.43;;;11.10;99.90;;;;;;4370031;32;20066;-74
2023/12/25 07:17:08;;;;;;;0.50;0.50;;;11.00;99.90;;;;;;4367089;32;20436;-74
2023/12/25 07:19:34;;;;;;;0.80;0.60;;;11.00;99.90;;;;;;4369686;32;20435;-73
2023/12/25 07:22:01;;;;;;;0.50;0.50;;;11.10;99.90;;;;;;4368598;32;20462;-71
2023/12/25 07:24:27;;;;;;;0.30;0.30;;;11.00;99.90;;;;;;4369232;32;20526;-72
2023/12/25 07:26:52;;;;;;;0.40;0.40;;;11.00;99.90;;;;;;4368304;32;20059;-72
2023/12/25 07:29:18;;;;;;;0.40;0.40;;;11.00;99.90;;;;;;4368357;32;20079;-70
2023/12/25 07:31:43;;;;;;;0.52;0.52;;;11.00;99.90;;;;;;4373833;32;20087;-73
2023/12/25 07:34:09;;;;;;;0.40;0.40;;;10.90;99.90;;;;;;4374341;32;20078;-71
2023/12/25 07:36:34;;;;;;;7.12;1.35;;;10.90;99.90;;;;;;4372443;32;20170;-71
2023/12/25 07:39:01;;;;;;;0.37;0.37;;;10.90;99.90;;;;;;4374323;32;20446;-74
2023/12/25 07:41:26;;;;;;;0.88;0.88;;;11.00;99.90;;;;;;4373103;32;20083;-73
2023/12/25 07:43:52;;;;;;;0.40;0.40;;;10.90;99.90;;;;;;4374532;32;20082;-74
2023/12/25 07:46:17;;;;;;;0.43;0.43;;;10.90;99.90;;;;;;4374714;32;21067;-73
2023/12/25 07:48:43;;;;;;;0.68;0.68;;;10.80;99.90;;;;;;4371310;32;20085;-73
2023/12/25 07:51:08;;;;;;;0.40;0.40;;;10.80;99.90;;;;;;4371453;32;20123;-73
2023/12/25 07:53:33;;;;;;;0.35;0.35;;;10.70;99.90;;;;;;4374111;32;20067;-73
2023/12/25 07:56:00;;;;;;;0.32;0.32;;;10.70;99.90;;;;;;4371564;32;20530;-73
2023/12/25 07:58:25;;;;;;;0.40;0.40;;;10.70;99.90;;;;;;4371290;32;20416;-75
2023/12/25 08:00:51;;;;;;;0.88;0.68;;;10.60;99.90;;;;;;4371960;32;20073;-71
2023/12/25 08:03:16;;;;;;;0.30;0.30;;;10.60;99.90;;;;;;4376553;32;20852;-73
2023/12/25 08:05:42;;;;;;;0.40;0.40;;;10.60;99.90;;;;;;4373266;32;20129;-74
2023/12/25 08:08:08;;;;;;;2.45;0.70;;;10.60;99.90;;;;;;4373605;32;20067;-72
2023/12/25 08:10:33;;;;;;;0.82;0.80;;;10.50;99.90;;;;;;4373056;32;20538;-72
2023/12/25 08:13:01;;;;;;;0.55;0.55;;;10.50;99.90;;;;;;4371831;32;20632;-72
2023/12/25 08:15:27;;;;;;;0.30;0.30;;;10.50;99.90;;;;;;4372706;32;20071;-72
2023/12/25 08:17:52;;;;;;;0.43;0.43;;;10.50;99.90;;;;;;4371573;32;20072;-73
2023/12/25 08:20:18;;;;;;;0.85;0.85;;;10.50;99.90;;;;;;4372546;32;20526;-73
2023/12/25 08:22:43;;;;;;;0.40;0.40;;;10.50;99.90;;;;;;4370874;32;20074;-72
2023/12/25 08:25:09;;;;;;;0.37;0.37;;;10.50;99.90;;;;;;4374724;32;20067;-73
2023/12/25 08:27:35;;;;;;;2.05;1.48;;;10.50;99.90;;;;;;4371980;32;20526;-73
2023/12/25 08:30:00;;;;;;;0.60;0.60;;;10.50;99.90;;;;;;4372318;32;20082;-71
2023/12/25 08:32:26;;;;;;;0.30;0.30;;;10.50;99.90;;;;;;4370921;32;20078;-70
2023/12/25 08:34:51;;;;;;;0.30;0.30;;;10.50;99.90;;;;;;4371455;32;20127;-70
2023/12/25 08:37:18;;;;;;;14.10;0.60;;;10.50;99.90;;;;;;4373560;32;20105;-70
2023/12/25 08:39:43;;;;;;;0.30;0.30;;;10.40;99.90;;;;;;4374488;32;20086;-73
2023/12/25 08:42:09;;;;;;;0.40;0.40;;;10.50;99.90;;;;;;4371256;32;20058;-70
2023/12/25 08:44:34;;;;;;;0.93;0.88;;;10.50;99.90;;;;;;4373048;32;20138;-72
2023/12/25 08:47:00;;;;;;;0.47;0.47;;;10.50;99.90;;;;;;4373533;32;20538;-72
2023/12/25 08:49:25;;;;;;;0.50;0.50;;;10.60;99.90;;;;;;4376266;32;20184;-73
2023/12/25 08:51:52;;;;;;;0.35;0.35;;;10.60;99.90;;;;;;4372323;32;20493;-73
2023/12/25 08:54:18;;;;;;;0.30;0.30;;;10.60;99.90;;;;;;4376163;32;20531;-73
2023/12/25 08:56:43;;;;;;;0.40;0.40;;;10.60;99.90;;;;;;4371765;32;20070;-73
2023/12/25 08:59:09;;;;;;;0.50;0.50;;;10.60;99.90;;;;;;4372010;32;20562;-73
2023/12/25 09:01:34;;;;;;;0.32;0.32;;;10.60;99.90;;;;;;4370920;32;20633;-73
2023/12/25 09:04:00;;;;;;;0.32;0.32;;;10.70;99.90;;;;;;4371313;32;20091;-73
2023/12/25 09:06:25;;;;;;;0.40;0.40;;;10.70;99.90;;;;;;4372484;32;20058;-73
2023/12/25 09:08:51;;;;;;;0.40;0.40;;;10.60;99.90;;;;;;4373453;32;20427;-73
2023/12/25 09:11:17;;;;;;;1.17;0.60;;;10.70;99.90;;;;;;4373121;32;20117;-73
2023/12/25 09:13:43;;;;;;;0.47;0.47;;;10.60;99.90;;;;;;4371700;32;20138;-74
2023/12/25 09:16:09;;;;;;;0.40;0.40;;;10.70;99.90;;;;;;4372882;32;20066;-73
2023/12/25 09:18:34;;;;;;;0.40;0.40;;;10.70;99.90;;;;;;4372299;32;20085;-73
2023/12/25 09:21:00;;;;;;;0.40;0.40;;;10.70;99.90;;;;;;4374681;32;20072;-74
2023/12/25 09:23:27;;;;;;;0.40;0.40;;;10.70;99.90;;;;;;4372740;32;20146;-73
2023/12/25 09:25:52;;;;;;;0.47;0.47;;;10.70;99.90;;;;;;4371156;32;20471;-73
2023/12/25 09:28:18;;;;;;;0.40;0.40;;;10.70;99.90;;;;;;4373031;32;20078;-73
2023/12/25 09:30:44;;;;;;;0.80;0.80;;;10.70;99.90;;;;;;4368910;32;20549;-73
2023/12/25 09:33:10;;;;;;;0.30;0.30;;;10.70;99.90;;;;;;4369458;32;20066;-73
2023/12/25 09:35:35;;;;;;;0.47;0.47;;;10.60;99.90;;;;;;4370230;32;20087;-73
2023/12/25 09:38:01;;;;;;;0.85;0.70;;;10.60;99.90;;;;;;4372917;32;20070;-73
2023/12/25 09:40:26;;;;;;;0.40;0.40;;;10.70;99.90;;;;;;4375846;32;20816;-70
2023/12/25 09:42:52;;;;;;;3.10;1.52;;;10.70;99.90;;;;;;4378620;32;20137;-69
2023/12/25 09:45:17;;;;;;;0.43;0.43;;;10.70;99.90;;;;;;4379082;32;20055;-69
2023/12/25 09:47:45;;;;;;;0.37;0.37;;;10.80;99.90;;;;;;4378547;32;20086;-70
2023/12/25 09:50:11;;;;;;;0.40;0.40;;;10.80;99.90;;;;;;4380592;32;20077;-70
2023/12/25 09:52:37;;;;;;;0.47;0.47;;;10.90;99.90;;;;;;4374891;32;20134;-70
2023/12/25 09:55:02;;;;;;;0.70;0.70;;;10.90;99.90;;;;;;4378858;32;20079;-70
2023/12/25 09:57:30;;;;;;;0.35;0.35;;;10.90;99.90;;;;;;4377551;32;20058;-70
2023/12/25 09:59:57;;;;;;;0.50;0.50;;;11.00;99.90;;;;;;4377881;32;20193;-71
2023/12/25 10:02:23;;;;;;;0.50;0.50;;;11.10;99.90;;;;;;4377055;32;20091;-70
2023/12/25 10:04:50;;;;;;;2.28;1.33;;;11.20;99.90;;;;;;4378915;32;20067;-71
2023/12/25 10:07:20;;;;;;;0.40;0.40;;;11.30;99.90;;;;;;4376393;32;20066;-71
2023/12/25 10:09:48;;;;;;;0.52;0.52;;;11.30;99.90;;;;;;4378383;32;20090;-70
2023/12/25 10:12:13;;;;;;;0.50;0.50;;;11.30;99.90;;;;;;4377550;32;20085;-72
2023/12/25 10:14:38;;;;;;;0.40;0.40;;;11.20;99.90;;;;;;4377499;32;20062;-70
2023/12/25 10:17:04;;;;;;;0.60;0.60;;;11.10;99.90;;;;;;4376704;32;20071;-70
2023/12/25 10:19:29;;;;;;;0.43;0.43;;;11.10;99.90;;;;;;4378435;32;20050;-71
2023/12/25 10:21:55;;;;;;;4.00;1.60;;;11.10;99.90;;;;;;4383934;32;20098;-72
2023/12/25 10:24:26;;;;;;;0.50;0.50;;;11.10;99.90;;;;;;4378587;32;20082;-70
2023/12/25 10:26:51;;;;;;;0.50;0.50;;;11.10;99.90;;;;;;4377996;32;20091;-70
2023/12/25 10:29:17;;;;;;;0.40;0.40;;;11.10;99.90;;;;;;4380123;32;20070;-70
2023/12/25 10:31:44;;;;;;;0.40;0.40;;;11.20;99.90;;;;;;4382629;32;20070;-70
2023/12/25 10:34:09;;;;;;;0.30;0.30;;;11.20;99.90;;;;;;4382911;32;20067;-72
2023/12/25 10:36:35;;;;;;;0.40;0.40;;;11.10;99.90;;;;;;4381937;32;20186;-70
2023/12/25 10:39:01;;;;;;;0.45;0.45;;;11.10;99.90;;;;;;4384286;32;20071;-70
2023/12/25 10:41:33;;;;;;;0.40;0.40;;;11.10;99.90;;;;;;4385569;32;20642;-71
2023/12/25 10:44:00;;;;;;;2.12;0.73;;;11.10;99.90;;;;;;4383713;32;20055;-70
2023/12/25 10:46:30;;;;;;;0.47;0.47;;;11.10;99.90;;;;;;4381926;32;20088;-71
2023/12/25 10:48:56;;;;;;;0.37;0.37;;;11.10;99.90;;;;;;4384387;32;20082;-73
2023/12/25 10:51:40;;;;;;;0.40;0.40;;;11.10;99.90;;;;;;4377687;32;21313;-73
2023/12/25 10:54:09;;;;;;;0.68;0.55;;;11.10;99.90;;;;;;4378135;32;20086;-73
2023/12/25 10:56:37;;;;;;;0.40;0.40;;;11.10;99.90;;;;;;4374442;32;20075;-73
2023/12/25 10:59:24;;;;;;;0.40;0.40;;;11.10;99.90;;;;;;4375454;32;20340;-73
2023/12/25 11:01:52;;;;;;;0.32;0.32;;;11.10;99.90;;;;;;4373860;32;20094;-73
2023/12/25 11:04:19;;;;;;;0.40;0.40;;;11.10;99.90;;;;;;4375022;32;20075;-73
2023/12/25 11:06:46;;;;;;;0.40;0.40;;;11.10;99.90;;;;;;4374819;32;20525;-73
2023/12/25 11:09:12;;;;;;;0.35;0.35;;;11.10;99.90;;;;;;4373791;32;20075;-70
2023/12/25 11:11:39;;;;;;;0.35;0.35;;;11.00;99.90;;;;;;4377339;32;20497;-70
2023/12/25 11:14:06;;;;;;;0.62;0.62;;;11.10;99.90;;;;;;4379931;32;20063;-71
2023/12/25 11:16:33;;;;;;;1.83;0.70;;;11.10;99.90;;;;;;4380661;32;20415;-71
2023/12/25 11:18:59;;;;;;;1.30;1.20;;;11.20;99.90;;;;;;4379094;32;20514;-71
2023/12/25 11:21:29;;;;;;;0.77;0.77;;;11.30;99.90;;;;;;4380499;32;20671;-71
2023/12/25 11:23:55;;;;;;;0.50;0.50;;;11.30;99.90;;;;;;4379729;32;20517;-71
2023/12/25 11:26:25;;;;;;;11.70;0.80;;;11.30;99.90;;;;;;4377106;32;20142;-71
2023/12/25 11:29:10;;;;;;;0.25;0.25;;;11.40;99.90;;;;;;4380948;32;20086;-69
2023/12/25 11:31:45;;;;;;;0.37;0.37;;;11.40;99.90;;;;;;4380070;32;20186;-71
2023/12/25 11:34:30;;;;;;;1.45;1.10;;;11.50;99.90;;;;;;4381623;32;20067;-71
2023/12/25 11:36:57;;;;;;;0.75;0.75;;;11.80;99.90;;;;;;4380431;32;20074;-72
2023/12/25 11:39:24;;;;;;;0.60;0.60;;;12.00;99.90;;;;;;4378873;32;20086;-72
2023/12/25 11:41:49;;;;;;;0.88;0.60;;;12.30;99.90;;;;;;4378467;32;20077;-70
2023/12/25 11:44:18;;;;;;;0.40;0.40;;;12.20;99.90;;;;;;4378783;32;20490;-71
2023/12/25 11:46:47;;;;;;;0.40;0.40;;;12.20;99.90;;;;;;4377482;32;20108;-71
2023/12/25 11:49:14;;;;;;;0.40;0.40;;;12.10;99.90;;;;;;4378344;32;20069;-72
2023/12/25 11:51:48;;;;;;;0.68;0.68;;;12.00;99.90;;;;;;4372882;32;83179;-71
2023/12/25 11:54:13;;;;;;;0.40;0.40;;;12.00;99.90;;;;;;4378406;32;20063;-72
2023/12/25 11:56:39;;;;;;;0.50;0.50;;;12.00;99.90;;;;;;4377009;32;20122;-70
2023/12/25 11:59:05;;;;;;;1.80;0.90;;;11.90;99.90;;;;;;4379834;32;20070;-70
2023/12/25 12:01:30;;;;;;;0.40;0.40;;;11.70;99.90;;;;;;4375995;32;20218;-70
2023/12/25 12:03:56;;;;;;;1.20;0.80;;;11.50;99.90;;;;;;4379201;32;20511;-70
2023/12/25 12:06:22;;;;;;;0.30;0.30;;;11.40;99.90;;;;;;4378837;32;20169;-71
2023/12/25 12:08:48;;;;;;;0.88;0.80;;;11.50;99.90;;;;;;4377578;32;20138;-70
2023/12/25 12:11:15;;;;;;;0.40;0.40;;;11.40;99.90;;;;;;4376512;32;20066;-71
2023/12/25 12:13:42;;;;;;;3.28;1.65;;;11.30;99.90;;;;;;4378416;32;20541;-70
2023/12/25 12:16:08;;;;;;;0.40;0.40;;;11.30;99.90;;;;;;4377258;32;20107;-71
2023/12/25 12:18:34;;;;;;;0.65;0.50;;;11.30;99.90;;;;;;4377673;32;20134;-72
2023/12/25 12:21:00;;;;;;;0.40;0.40;;;11.20;99.90;;;;;;4370900;32;20137;-73
2023/12/25 12:23:28;;;;;;;0.70;0.70;;;11.20;99.90;;;;;;4372595;32;20153;-72
2023/12/25 12:25:54;;;;;;;0.30;0.30;;;11.20;99.90;;;;;;4373780;32;20439;-74
2023/12/25 12:28:19;;;;;;;1.55;0.70;;;11.20;99.90;;;;;;4373772;32;20077;-73
2023/12/25 12:30:45;;;;;;;0.32;0.32;;;11.10;99.90;;;;;;4370366;32;20066;-73
2023/12/25 12:33:12;;;;;;;0.30;0.30;;;11.10;99.90;;;;;;4372291;32;20075;-73
2023/12/25 12:35:39;;;;;;;22.80;1.20;;;11.10;99.90;;;;;;4374589;32;20482;-73
2023/12/25 12:38:04;;;;;;;0.45;0.45;;;11.10;99.90;;;;;;4368264;32;20065;-73
2023/12/25 12:40:30;;;;;;;0.68;0.68;;;11.10;99.90;;;;;;4372435;32;20095;-73
2023/12/25 12:42:56;;;;;;;0.40;0.40;;;11.20;99.90;;;;;;4375303;32;20077;-73